createdAt,value
2019-01-21T00:00:33.537Z,42.90
2019-01-21T00:03:14.667Z,37.40
2019-01-21T00:11:45.857Z,34.33
2019-01-21T00:19:44.312Z,30.03
2019-01-21T00:28:15.831Z,36.57
2019-01-21T00:36:47.578Z,31.77
2019-01-21T00:39:26.011Z,34.27
2019-01-21T00:50:37.149Z,34.07
2019-01-21T00:59:08.706Z,30.13
2019-01-21T01:05:00.238Z,30.67
2019-01-21T01:10:51.229Z,35.87
2019-01-21T01:24:42.482Z,34.27
2019-01-21T01:32:41.547Z,35.33
2019-01-21T01:43:20.241Z,38.27
2019-01-21T01:48:38.847Z,36.07
2019-01-21T01:53:57.420Z,35.10
2019-01-21T01:59:16.029Z,39.03
2019-01-21T02:07:47.629Z,35.47
2019-01-21T02:16:18.943Z,38.53
2019-01-21T02:21:37.169Z,31.97
2019-01-21T02:26:55.926Z,34.77
2019-01-21T02:32:14.726Z,39.80
2019-01-21T02:42:53.662Z,30.43
2019-01-21T02:48:12.094Z,34.60
2019-01-21T02:53:30.572Z,38.63
2019-01-21T02:58:49.187Z,36.57
2019-01-21T03:04:07.906Z,36.50
2019-01-21T03:09:26.478Z,37.27
2019-01-21T03:14:45.398Z,34.63
2019-01-21T03:25:24.346Z,35.83
2019-01-21T03:30:42.782Z,36.93
2019-01-21T03:33:26.571Z,31.10
2019-01-21T03:36:06.512Z,37.97
2019-01-21T03:38:47.621Z,33.57
2019-01-21T03:41:29.013Z,30.57
2019-01-21T03:44:10.267Z,34.17
2019-01-21T03:46:51.555Z,33.90
2019-01-21T03:49:32.241Z,36.70
2019-01-21T03:52:12.898Z,35.17
2019-01-21T03:54:54.526Z,35.97
2019-01-21T03:57:35.969Z,35.00
2019-01-21T04:03:52.063Z,37.77
2019-01-21T04:10:08.158Z,36.73
2019-01-21T04:13:15.553Z,34.70
2019-01-21T04:19:31.600Z,34.47
2019-01-21T04:22:38.984Z,35.77
2019-01-21T04:25:46.381Z,31.73
2019-01-21T04:28:53.786Z,37.30
2019-01-21T04:32:01.182Z,30.10
2019-01-21T04:35:08.572Z,37.73
2019-01-21T04:38:35.943Z,31.53
2019-01-21T04:41:43.346Z,34.10
2019-01-21T04:44:50.829Z,34.47
2019-01-21T04:47:58.190Z,36.67
2019-01-21T04:51:05.635Z,33.53
2019-01-21T04:57:02.000Z,35.97
2019-01-21T04:59:43.374Z,32.97
2019-01-21T05:02:24.525Z,32.80
2019-01-21T05:05:05.884Z,29.30
2019-01-21T05:07:46.826Z,31.27
2019-01-21T05:10:27.944Z,34.73
2019-01-21T05:13:08.758Z,33.33
2019-01-21T05:15:50.110Z,32.40
2019-01-21T05:18:57.594Z,39.07
2019-01-21T05:22:04.984Z,34.20
2019-01-21T05:25:12.403Z,43.60
2019-01-21T05:37:39.697Z,39.67
2019-01-21T05:40:20.867Z,43.27
2019-01-21T05:43:02.308Z,45.70
2019-01-21T05:45:42.848Z,38.93
2019-01-21T05:48:24.252Z,41.37
2019-01-21T05:51:05.713Z,41.07
2019-01-21T05:53:46.797Z,43.93
2019-01-21T05:56:28.101Z,42.97
2019-01-21T05:59:08.621Z,45.60
2019-01-21T06:01:49.299Z,45.27
2019-01-21T06:04:30.680Z,46.00
2019-01-21T06:07:11.762Z,42.80
2019-01-21T06:09:52.953Z,46.00
2019-01-21T06:12:34.182Z,44.47
2019-01-21T06:15:14.787Z,44.50
2019-01-21T06:18:15.223Z,49.37
2019-01-21T06:21:22.597Z,45.23
2019-01-21T06:24:29.978Z,45.67
2019-01-21T06:27:37.358Z,47.90
2019-01-21T06:30:44.813Z,49.63
2019-01-21T06:33:52.241Z,42.63
2019-01-21T06:36:59.633Z,44.20
2019-01-21T06:40:07.017Z,45.50
2019-01-21T06:52:52.566Z,49.50
2019-01-21T06:55:59.977Z,46.27
2019-01-21T06:59:07.367Z,43.73
2019-01-21T07:01:48.587Z,48.03
2019-01-21T07:04:29.740Z,46.77
2019-01-21T07:07:11.161Z,41.13
2019-01-21T07:09:52.554Z,46.10
2019-01-21T07:12:33.684Z,48.10
2019-01-21T07:15:14.973Z,50.47
2019-01-21T07:17:55.513Z,51.57
2019-01-21T07:20:36.872Z,49.33
2019-01-21T07:23:18.310Z,45.97
2019-01-21T07:25:59.549Z,47.70
2019-01-21T07:28:40.082Z,51.50
2019-01-21T07:31:21.267Z,47.73
2019-01-21T07:34:02.775Z,49.57
2019-01-21T07:36:44.077Z,49.23
2019-01-21T07:39:25.375Z,51.50
2019-01-21T07:42:06.623Z,48.67
2019-01-21T07:44:47.626Z,52.30
2019-01-21T07:47:28.809Z,52.13
2019-01-21T07:50:10.141Z,50.57
2019-01-21T07:52:51.497Z,46.63
2019-01-21T07:55:32.663Z,50.23
2019-01-21T07:58:13.939Z,46.70
2019-01-21T08:00:55.185Z,44.30
2019-01-21T08:03:36.547Z,47.53
2019-01-21T08:06:17.822Z,50.07
2019-01-21T08:08:59.166Z,51.57
2019-01-21T08:11:40.262Z,47.47
2019-01-21T08:14:20.803Z,50.03
2019-01-21T08:17:02.260Z,51.13
2019-01-21T08:19:43.646Z,49.27
2019-01-21T08:22:24.942Z,52.83
2019-01-21T08:25:06.083Z,53.00
2019-01-21T08:27:47.369Z,50.13
2019-01-21T08:30:28.486Z,58.53
2019-01-21T08:33:09.709Z,50.63
2019-01-21T08:35:50.298Z,60.47
2019-01-21T08:42:06.334Z,50.93
2019-01-21T08:45:13.746Z,54.87
2019-01-21T08:54:45.156Z,58.97
2019-01-21T08:57:52.542Z,46.17
2019-01-21T09:00:59.904Z,54.57
2019-01-21T09:03:40.644Z,51.43
2019-01-21T09:06:21.978Z,53.50
2019-01-21T09:09:03.281Z,52.87
2019-01-21T09:11:44.698Z,52.40
2019-01-21T09:14:25.812Z,47.63
2019-01-21T09:17:07.141Z,46.37
2019-01-21T09:19:47.656Z,46.93
2019-01-21T09:22:31.317Z,49.00
2019-01-21T09:25:12.870Z,46.40
2019-01-21T09:27:53.485Z,48.43
2019-01-21T09:34:09.498Z,45.60
2019-01-21T09:39:59.610Z,45.13
2019-01-21T09:42:40.849Z,45.27
2019-01-21T09:45:22.135Z,47.73
2019-01-21T09:48:03.523Z,46.80
2019-01-21T09:50:44.814Z,44.13
2019-01-21T09:53:24.025Z,51.27
2019-01-21T09:56:04.851Z,48.03
2019-01-21T09:58:46.255Z,50.00
2019-01-21T10:01:27.594Z,54.63
2019-01-21T10:04:08.905Z,57.53
2019-01-21T10:06:50.374Z,50.10
2019-01-21T10:09:30.915Z,48.67
2019-01-21T10:12:12.245Z,52.33
2019-01-21T10:14:53.321Z,46.77
2019-01-21T10:17:34.270Z,51.60
2019-01-21T10:20:15.583Z,49.87
2019-01-21T10:22:56.749Z,57.00
2019-01-21T10:25:38.118Z,51.30
2019-01-21T10:28:19.263Z,53.83
2019-01-21T10:31:00.601Z,48.93
2019-01-21T10:33:41.633Z,49.43
2019-01-21T10:36:22.882Z,57.23
2019-01-21T10:39:04.174Z,46.63
2019-01-21T10:41:45.541Z,46.73
2019-01-21T10:44:26.979Z,50.87
2019-01-21T10:47:08.311Z,50.03
2019-01-21T10:49:48.993Z,45.90
2019-01-21T10:52:30.334Z,42.43
2019-01-21T10:55:11.434Z,47.33
2019-01-21T10:57:52.762Z,46.93
2019-01-21T11:00:33.768Z,42.80
2019-01-21T11:03:15.208Z,38.73
2019-01-21T11:05:56.362Z,46.70
2019-01-21T11:08:37.698Z,40.10
2019-01-21T11:11:18.289Z,46.57
2019-01-21T11:13:59.681Z,40.00
2019-01-21T11:16:40.929Z,42.80
2019-01-21T11:19:22.305Z,44.70
2019-01-21T11:22:03.458Z,44.67
2019-01-21T11:24:44.819Z,48.97
2019-01-21T11:27:25.970Z,44.03
2019-01-21T11:30:07.385Z,45.13
2019-01-21T11:32:48.658Z,44.17
2019-01-21T11:35:29.895Z,49.80
2019-01-21T11:38:10.469Z,44.40
2019-01-21T11:40:51.879Z,39.90
2019-01-21T11:43:32.897Z,40.53
2019-01-21T11:46:14.378Z,40.00
2019-01-21T11:48:55.672Z,42.47
2019-01-21T11:51:37.006Z,49.17
2019-01-21T11:54:18.234Z,41.17
2019-01-21T11:56:59.425Z,40.37
2019-01-21T11:59:40.640Z,41.43
2019-01-21T12:02:21.759Z,43.20
2019-01-21T12:05:02.279Z,43.27
2019-01-21T12:07:43.595Z,44.03
2019-01-21T12:10:44.171Z,41.57
2019-01-21T12:13:51.525Z,38.93
2019-01-21T12:16:58.909Z,43.97
2019-01-21T12:20:06.279Z,37.83
2019-01-21T12:26:29.139Z,42.33
2019-01-21T12:32:45.169Z,36.67
2019-01-21T12:35:52.543Z,39.27
2019-01-21T12:41:49.169Z,36.87
2019-01-21T12:44:30.642Z,36.87
2019-01-21T12:47:11.830Z,39.97
2019-01-21T12:49:53.054Z,36.80
2019-01-21T12:52:34.507Z,36.03
2019-01-21T12:55:15.519Z,36.30
2019-01-21T12:57:56.803Z,39.20
2019-01-21T13:00:38.242Z,34.77
2019-01-21T13:03:19.349Z,35.73
2019-01-21T13:06:00.550Z,39.57
2019-01-21T13:08:41.870Z,37.23
2019-01-21T13:11:22.954Z,36.90
2019-01-21T13:14:04.162Z,38.80
2019-01-21T13:16:46.424Z,35.13
2019-01-21T13:19:27.306Z,41.57
2019-01-21T13:22:08.665Z,34.33
2019-01-21T13:24:51.004Z,39.80
2019-01-21T13:27:32.479Z,37.67
2019-01-21T13:30:13.704Z,37.97
2019-01-21T13:32:55.023Z,35.37
2019-01-21T13:35:36.272Z,36.10
2019-01-21T13:38:16.758Z,38.13
2019-01-21T13:40:58.183Z,38.33
2019-01-21T13:43:39.583Z,34.00
2019-01-21T13:46:20.928Z,37.20
2019-01-21T13:49:04.481Z,38.13
2019-01-21T13:55:13.213Z,38.73
2019-01-21T13:57:54.175Z,37.67
2019-01-21T14:00:35.298Z,38.73
2019-01-21T14:03:16.657Z,37.20
2019-01-21T14:06:00.037Z,37.87
2019-01-21T14:08:40.625Z,38.17
2019-01-21T14:11:21.738Z,38.63
2019-01-21T14:14:03.160Z,33.97
2019-01-21T14:16:44.242Z,40.80
2019-01-21T14:19:26.351Z,38.63
2019-01-21T14:22:07.574Z,32.80
2019-01-21T14:24:48.081Z,39.27
2019-01-21T14:27:29.799Z,34.47
2019-01-21T14:30:11.191Z,37.97
2019-01-21T14:32:52.697Z,34.43
2019-01-21T14:35:33.879Z,38.83
2019-01-21T14:38:15.047Z,31.97
2019-01-21T14:40:55.754Z,37.73
2019-01-21T14:43:36.920Z,34.30
2019-01-21T14:46:18.281Z,36.80
2019-01-21T14:49:04.573Z,35.80
2019-01-21T14:51:42.406Z,35.17
2019-01-21T14:54:22.961Z,35.57
2019-01-21T14:57:03.966Z,34.30
2019-01-21T14:59:44.561Z,36.73
2019-01-21T15:02:25.598Z,44.03
2019-01-21T15:05:27.085Z,38.07
2019-01-21T15:18:02.911Z,31.67
2019-01-21T15:21:10.306Z,40.43
2019-01-21T15:24:17.718Z,34.80
2019-01-21T15:27:25.214Z,33.97
2019-01-21T15:30:32.598Z,35.03
2019-01-21T15:33:40.010Z,35.87
2019-01-21T15:49:40.625Z,40.60
2019-01-21T15:52:48.034Z,37.57
2019-01-21T16:02:19.291Z,37.27
2019-01-21T16:05:26.646Z,39.83
2019-01-21T16:21:34.922Z,45.33
2019-01-21T16:24:42.347Z,36.37
2019-01-21T16:27:49.766Z,36.83
2019-01-21T16:30:57.142Z,38.50
2019-01-21T16:34:04.522Z,38.30
2019-01-21T16:37:11.969Z,41.07
2019-01-21T16:40:19.479Z,40.50
2019-01-21T16:43:07.582Z,44.60
2019-01-21T16:45:55.732Z,41.10
2019-01-21T16:48:43.810Z,42.27
2019-01-21T16:51:31.866Z,46.27
2019-01-21T16:54:19.945Z,41.87
2019-01-21T16:57:08.177Z,49.47
2019-01-21T16:59:56.235Z,42.00
2019-01-21T17:02:37.446Z,46.00
2019-01-21T17:05:18.506Z,43.17
2019-01-21T17:08:00.771Z,45.97
2019-01-21T17:10:41.851Z,44.53
2019-01-21T17:13:23.209Z,49.77
2019-01-21T17:16:04.592Z,41.83
2019-01-21T17:18:45.756Z,50.13
2019-01-21T17:21:27.809Z,43.90
2019-01-21T17:24:08.542Z,46.70
2019-01-21T17:26:49.258Z,47.70
2019-01-21T17:29:30.652Z,45.17
2019-01-21T17:32:11.197Z,49.47
2019-01-21T17:34:50.202Z,47.87
2019-01-21T17:37:38.358Z,43.57
2019-01-21T17:40:26.485Z,49.83
2019-01-21T17:46:28.613Z,43.00
2019-01-21T17:49:16.721Z,46.47
2019-01-21T17:52:24.713Z,49.77
2019-01-21T17:55:13.128Z,49.50
2019-01-21T17:58:01.185Z,48.60
2019-01-21T18:00:49.309Z,47.03
2019-01-21T18:03:30.244Z,44.13
2019-01-21T18:06:11.671Z,44.00
2019-01-21T18:08:52.250Z,47.97
2019-01-21T18:11:33.826Z,46.03
2019-01-21T18:14:14.901Z,46.73
2019-01-21T18:16:56.409Z,49.63
2019-01-21T18:19:37.510Z,48.87
2019-01-21T18:22:18.638Z,49.30
2019-01-21T18:24:57.846Z,53.70
2019-01-21T18:27:46.015Z,49.70
2019-01-21T18:30:34.142Z,52.27
2019-01-21T18:33:22.362Z,54.63
2019-01-21T18:36:10.483Z,49.20
2019-01-21T18:38:58.614Z,55.07
2019-01-21T18:41:39.812Z,51.93
2019-01-21T18:44:22.170Z,52.97
2019-01-21T18:47:03.494Z,47.97
2019-01-21T18:49:44.501Z,52.17
2019-01-21T18:52:25.784Z,50.83
2019-01-21T18:55:07.063Z,51.87
2019-01-21T18:57:48.274Z,55.37
2019-01-21T19:00:29.326Z,51.10
2019-01-21T19:03:10.447Z,49.17
2019-01-21T19:05:51.633Z,47.17
2019-01-21T19:08:32.970Z,53.77
2019-01-21T19:11:14.467Z,51.47
2019-01-21T19:13:55.623Z,53.67
2019-01-21T19:16:37.159Z,51.57
2019-01-21T19:19:18.531Z,51.80
2019-01-21T19:22:00.896Z,47.90
2019-01-21T19:24:43.031Z,56.97
2019-01-21T19:27:51.104Z,48.70
2019-01-21T19:30:36.323Z,50.90
2019-01-21T19:33:17.577Z,52.33
2019-01-21T19:35:59.145Z,55.33
2019-01-21T19:38:40.341Z,51.03
2019-01-21T19:41:21.110Z,53.73
2019-01-21T19:44:02.559Z,53.00
2019-01-21T19:46:44.251Z,50.70
2019-01-21T19:49:31.614Z,48.80
2019-01-21T19:52:19.774Z,53.13
2019-01-21T19:58:22.432Z,47.00
2019-01-21T20:01:30.526Z,57.60
2019-01-21T20:04:31.875Z,57.13
2019-01-21T20:07:13.000Z,55.43
2019-01-21T20:09:54.364Z,58.20
2019-01-21T20:12:35.813Z,54.30
2019-01-21T20:15:16.922Z,62.57
2019-01-21T20:17:58.615Z,56.43
2019-01-21T20:20:39.657Z,57.60
2019-01-21T20:23:21.154Z,63.50
2019-01-21T20:26:02.577Z,56.27
2019-01-21T20:28:46.030Z,67.40
2019-01-21T20:31:27.487Z,61.07
2019-01-21T20:34:08.854Z,64.40
2019-01-21T20:36:49.862Z,62.80
2019-01-21T20:39:31.080Z,64.23
2019-01-21T20:42:12.061Z,63.90
2019-01-21T20:44:53.200Z,63.13
2019-01-21T20:47:34.296Z,63.80
2019-01-21T20:50:15.650Z,60.27
2019-01-21T20:52:57.037Z,60.97
2019-01-21T20:55:38.264Z,59.43
2019-01-21T20:58:19.697Z,63.13
2019-01-21T21:01:00.974Z,58.77
2019-01-21T21:03:42.387Z,62.13
2019-01-21T21:06:23.670Z,55.70
2019-01-21T21:09:05.011Z,55.90
2019-01-21T21:11:46.264Z,65.20
2019-01-21T21:14:27.583Z,63.00
2019-01-21T21:17:08.831Z,65.50
2019-01-21T21:19:51.205Z,58.73
2019-01-21T21:22:32.072Z,57.07
2019-01-21T21:25:13.050Z,54.17
2019-01-21T21:27:53.554Z,60.20
2019-01-21T21:30:34.870Z,61.70
2019-01-21T21:33:16.649Z,57.57
2019-01-21T21:35:59.058Z,65.27
2019-01-21T21:38:40.430Z,58.67
2019-01-21T21:41:21.571Z,63.63
2019-01-21T21:44:02.780Z,63.23
2019-01-21T21:46:44.122Z,58.90
2019-01-21T21:49:25.603Z,55.80
2019-01-21T21:52:06.742Z,54.73
2019-01-21T21:54:48.013Z,52.80
2019-01-21T21:57:30.544Z,58.40
2019-01-21T22:00:11.757Z,52.67
2019-01-21T22:02:54.012Z,52.80
2019-01-21T22:05:35.493Z,54.43
2019-01-21T22:08:16.674Z,55.27
2019-01-21T22:10:58.943Z,54.77
2019-01-21T22:13:38.028Z,51.20
2019-01-21T22:19:39.735Z,52.37
2019-01-21T22:22:27.812Z,46.17
2019-01-21T22:25:15.948Z,54.93
2019-01-21T22:28:04.010Z,54.97
2019-01-21T22:30:52.143Z,59.17
2019-01-21T22:33:40.273Z,51.03
2019-01-21T22:36:28.406Z,47.77
2019-01-21T22:39:38.048Z,52.47
2019-01-21T22:42:26.169Z,51.70
2019-01-21T22:45:20.330Z,49.80
2019-01-21T22:48:15.240Z,49.47
2019-01-21T22:51:09.303Z,54.73
2019-01-21T22:54:08.860Z,56.83
2019-01-21T22:56:56.949Z,57.53
2019-01-21T22:59:45.073Z,50.90
2019-01-21T23:02:33.171Z,56.20
2019-01-21T23:05:14.561Z,55.27
2019-01-21T23:07:57.884Z,54.77
2019-01-21T23:10:39.179Z,53.27
2019-01-21T23:13:20.643Z,54.57
2019-01-21T23:16:02.051Z,50.60
2019-01-21T23:18:43.266Z,50.77
2019-01-21T23:21:23.789Z,54.13
2019-01-21T23:24:05.272Z,55.07
2019-01-21T23:26:46.874Z,60.90
2019-01-21T23:29:27.448Z,58.07
2019-01-21T23:32:08.748Z,53.17
2019-01-21T23:34:49.763Z,58.83
2019-01-21T23:37:31.150Z,53.90
2019-01-21T23:40:12.448Z,57.23
2019-01-21T23:42:53.771Z,56.70
2019-01-21T23:45:35.250Z,57.80
2019-01-21T23:48:16.731Z,61.60
2019-01-21T23:50:57.462Z,55.17
2019-01-21T23:53:38.616Z,64.13
2019-01-21T23:56:20.040Z,56.13
2019-01-21T23:59:01.662Z,61.87
